PWSweather.com
Personal Weather Stations
Station Observations
KJ4AJP
Beautiful Downtown Gardner, Martin, TN 38237

Beautiful Downtown GardnerMartin, TN 38237

Lat: 36.358, Lon: -88.8994

Elevation: 384.3

Station Type: TP1080WC

http://weather.mambm.com/

High Low Average
Temperature 60.1°F15.6°C 53.2°F11.8°C 57.4°F14.1°C
Dew Point 59.8°F15.4°C 51.2°F10.7°C 57.0°F13.9°C
Winds 12.1 mph 19.5 kmh Calm Calm 5.0 mph SSE8.0 kmh SSE
Wind Gusts 30.4 mph48.9 kmh 3.1 mph5.0 kmh 12.0 mph19.3 kmh
Humidity 99% 85% 98%
Pressure 30.01 in1016.3 mb 29.80 in1009.1 mb -
Precipitation 0.90 in22.9 mm - -
Hour Temp Dew Point Humidity Winds Wind Gusts Pressure Precip Precip Rate Daily Precip Total
12:00 AM 55.8°F13.2°C 51.3°F10.7°C 85% 6.9 mph S11.1 kmh S 14.5 mph23.3 kmh 30.01 in1016.3 mb 0.00 in0.0 mm 0.00 in0.0 mm 0.00 in0.0 mm
12:15 AM 55.0°F12.8°C 51.2°F10.7°C 87% 9.2 mph SSE14.8 kmh SSE 16.8 mph27.0 kmh 30.00 in1015.9 mb 0.01 in0.3 mm 0.04 in1.0 mm 0.01 in0.3 mm
12:30 AM 54.1°F12.3°C 51.3°F10.7°C 90% 7.6 mph S12.2 kmh S 16.8 mph27.0 kmh 29.99 in1015.6 mb 0.01 in0.3 mm 0.00 in0.0 mm 0.01 in0.3 mm
12:45 AM 53.8°F12.1°C 51.8°F11.0°C 93% 6.0 mph S9.7 kmh S 14.5 mph23.3 kmh 30.00 in1015.9 mb 0.02 in0.5 mm 0.04 in1.0 mm 0.02 in0.5 mm
01:00 AM 53.6°F12.0°C 52.2°F11.2°C 95% 5.4 mph S8.7 kmh S 17.4 mph28.0 kmh 30.00 in1015.9 mb 0.04 in1.0 mm 0.03 in0.8 mm 0.04 in1.0 mm
01:15 AM 53.2°F11.8°C 52.4°F11.3°C 97% 8.3 mph S13.4 kmh S 14.5 mph23.3 kmh 29.98 in1015.2 mb 0.04 in1.0 mm 0.00 in0.0 mm 0.05 in1.3 mm
01:30 AM 53.2°F11.8°C 53.0°F11.7°C 99% 6.9 mph SSE11.1 kmh SSE 15.9 mph25.6 kmh 29.98 in1015.2 mb 0.05 in1.3 mm 0.04 in1.0 mm 0.07 in1.8 mm
01:45 AM 53.4°F11.9°C 53.2°F11.8°C 99% 6.9 mph SSE11.1 kmh SSE 16.8 mph27.0 kmh 29.98 in1015.2 mb 0.07 in1.8 mm 0.08 in2.0 mm 0.09 in2.3 mm
02:00 AM 53.6°F12.0°C 53.3°F11.8°C 99% 7.6 mph S12.2 kmh S 22.1 mph35.6 kmh 29.97 in1014.9 mb 0.09 in2.3 mm 0.03 in0.8 mm 0.13 in3.3 mm
02:15 AM 53.8°F12.1°C 53.5°F11.9°C 99% 6.0 mph SSE9.7 kmh SSE 19.0 mph30.6 kmh 29.94 in1013.9 mb 0.11 in2.8 mm 0.08 in2.0 mm 0.15 in3.8 mm
02:30 AM 54.0°F12.2°C 53.7°F12.1°C 99% 9.2 mph S14.8 kmh S 24.4 mph39.3 kmh 29.91 in1012.9 mb 0.11 in2.8 mm 0.00 in0.0 mm 0.18 in4.6 mm
02:45 AM 54.3°F12.4°C 54.1°F12.3°C 99% 9.2 mph S14.8 kmh S 28.2 mph45.4 kmh 29.91 in1012.9 mb 0.11 in2.8 mm 0.00 in0.0 mm 0.20 in5.1 mm
03:00 AM 54.5°F12.5°C 54.2°F12.3°C 99% 12.1 mph SSE19.5 kmh SSE 23.5 mph37.8 kmh 29.90 in1012.5 mb 0.09 in2.3 mm 0.00 in0.0 mm 0.22 in5.6 mm
03:15 AM 54.7°F12.6°C 54.4°F12.4°C 99% 6.0 mph SSE9.7 kmh SSE 30.4 mph48.9 kmh 29.89 in1012.2 mb 0.09 in2.3 mm 0.00 in0.0 mm 0.25 in6.4 mm
03:30 AM 55.0°F12.8°C 54.8°F12.7°C 99% 6.0 mph S9.7 kmh S 22.1 mph35.6 kmh 29.89 in1012.2 mb 0.09 in2.3 mm 0.00 in0.0 mm 0.27 in6.9 mm
03:45 AM 55.2°F12.9°C 55.0°F12.8°C 99% 6.0 mph SE9.7 kmh SE 19.0 mph30.6 kmh 29.88 in1011.9 mb 0.08 in2.0 mm 0.00 in0.0 mm 0.28 in7.1 mm
04:00 AM 55.4°F13.0°C 55.1°F12.8°C 99% 6.9 mph SSE11.1 kmh SSE 16.8 mph27.0 kmh 29.87 in1011.5 mb 0.08 in2.0 mm 0.00 in0.0 mm 0.31 in7.9 mm
04:15 AM 55.6°F13.1°C 55.3°F12.9°C 99% 6.0 mph SSE9.7 kmh SSE 13.6 mph21.9 kmh 29.87 in1011.5 mb 0.07 in1.8 mm 0.00 in0.0 mm 0.32 in8.1 mm
04:30 AM 55.8°F13.2°C 55.5°F13.1°C 99% 7.6 mph SE12.2 kmh SE 17.4 mph28.0 kmh 29.85 in1010.8 mb 0.05 in1.3 mm 0.00 in0.0 mm 0.32 in8.1 mm
04:45 AM 56.1°F13.4°C 55.9°F13.3°C 99% 8.3 mph SSE13.4 kmh SSE 19.0 mph30.6 kmh 29.87 in1011.5 mb 0.05 in1.3 mm 0.00 in0.0 mm 0.33 in8.4 mm
05:00 AM 56.7°F13.7°C 56.4°F13.6°C 99% 9.8 mph S15.8 kmh S 18.3 mph29.5 kmh 29.88 in1011.9 mb 0.02 in0.5 mm 0.00 in0.0 mm 0.33 in8.4 mm
05:15 AM 57.0°F13.9°C 56.8°F13.8°C 99% 9.2 mph S14.8 kmh S 16.8 mph27.0 kmh 29.90 in1012.5 mb 0.04 in1.0 mm 0.08 in2.0 mm 0.35 in8.9 mm
05:30 AM 57.2°F14.0°C 56.9°F13.8°C 99% 5.4 mph S8.7 kmh S 15.9 mph25.6 kmh 29.88 in1011.9 mb 0.06 in1.5 mm 0.08 in2.0 mm 0.38 in9.7 mm
05:45 AM 57.4°F14.1°C 57.1°F13.9°C 99% 6.9 mph SSE11.1 kmh SSE 20.6 mph33.2 kmh 29.88 in1011.9 mb 0.07 in1.8 mm 0.04 in1.0 mm 0.40 in10.2 mm
06:00 AM 57.6°F14.2°C 57.3°F14.1°C 99% 6.0 mph SSE9.7 kmh SSE 15.9 mph25.6 kmh 29.89 in1012.2 mb 0.07 in1.8 mm 0.00 in0.0 mm 0.41 in10.4 mm
06:15 AM 57.4°F14.1°C 57.1°F13.9°C 99% 6.9 mph SSE11.1 kmh SSE 18.3 mph29.5 kmh 29.89 in1012.2 mb 0.12 in3.0 mm 0.20 in5.1 mm 0.47 in11.9 mm
06:30 AM 57.2°F14.0°C 56.9°F13.8°C 99% 4.5 mph S7.2 kmh S 13.6 mph21.9 kmh 29.89 in1012.2 mb 0.13 in3.3 mm 0.04 in1.0 mm 0.51 in13.0 mm
06:45 AM 57.2°F14.0°C 56.9°F13.8°C 99% 5.4 mph S8.7 kmh S 11.4 mph18.3 kmh 29.89 in1012.2 mb 0.12 in3.0 mm 0.00 in0.0 mm 0.52 in13.2 mm
07:00 AM 57.2°F14.0°C 56.9°F13.8°C 99% 3.8 mph S6.1 kmh S 9.8 mph15.8 kmh 29.90 in1012.5 mb 0.12 in3.0 mm 0.00 in0.0 mm 0.53 in13.5 mm
07:15 AM 57.2°F14.0°C 56.9°F13.8°C 99% 5.4 mph SSE8.7 kmh SSE 9.8 mph15.8 kmh 29.91 in1012.9 mb 0.08 in2.0 mm 0.00 in0.0 mm 0.56 in14.2 mm
07:30 AM 57.2°F14.0°C 56.9°F13.8°C 99% 5.4 mph SSE8.7 kmh SSE 10.7 mph17.2 kmh 29.90 in1012.5 mb 0.05 in1.3 mm 0.00 in0.0 mm 0.56 in14.2 mm
07:45 AM 57.4°F14.1°C 57.1°F13.9°C 99% 3.8 mph SSE6.1 kmh SSE 9.8 mph15.8 kmh 29.91 in1012.9 mb 0.04 in1.0 mm 0.00 in0.0 mm 0.56 in14.2 mm
08:00 AM 57.6°F14.2°C 57.3°F14.1°C 99% 2.2 mph SSE3.5 kmh SSE 10.7 mph17.2 kmh 29.90 in1012.5 mb 0.02 in0.5 mm 0.00 in0.0 mm 0.56 in14.2 mm
08:15 AM 57.6°F14.2°C 57.3°F14.1°C 99% 3.8 mph SE6.1 kmh SE 7.6 mph12.2 kmh 29.89 in1012.2 mb 0.00 in0.0 mm 0.00 in0.0 mm 0.56 in14.2 mm
08:30 AM 57.6°F14.2°C 57.3°F14.1°C 99% 2.2 mph SSE3.5 kmh SSE 13.6 mph21.9 kmh 29.88 in1011.9 mb 0.00 in0.0 mm 0.00 in0.0 mm 0.56 in14.2 mm
08:45 AM 57.7°F14.3°C 57.5°F14.2°C 99% 3.8 mph S6.1 kmh S 13.6 mph21.9 kmh 29.89 in1012.2 mb 0.00 in0.0 mm 0.00 in0.0 mm 0.56 in14.2 mm
09:00 AM 57.7°F14.3°C 57.5°F14.2°C 99% 6.0 mph SSE9.7 kmh SSE 14.5 mph23.3 kmh 29.90 in1012.5 mb 0.00 in0.0 mm 0.00 in0.0 mm 0.56 in14.2 mm
09:15 AM 57.9°F14.4°C 57.7°F14.3°C 99% 2.2 mph SE3.5 kmh SE 9.2 mph14.8 kmh 29.90 in1012.5 mb 0.00 in0.0 mm 0.00 in0.0 mm 0.56 in14.2 mm
09:30 AM 57.9°F14.4°C 57.7°F14.3°C 99% 3.8 mph SE6.1 kmh SE 10.7 mph17.2 kmh 29.89 in1012.2 mb 0.00 in0.0 mm 0.00 in0.0 mm 0.56 in14.2 mm
09:45 AM 57.9°F14.4°C 57.7°F14.3°C 99% 3.8 mph SSE6.1 kmh SSE 12.1 mph19.5 kmh 29.89 in1012.2 mb 0.00 in0.0 mm 0.00 in0.0 mm 0.56 in14.2 mm
10:00 AM 58.1°F14.5°C 57.8°F14.3°C 99% 3.8 mph SE6.1 kmh SE 10.7 mph17.2 kmh 29.89 in1012.2 mb 0.00 in0.0 mm 0.00 in0.0 mm 0.56 in14.2 mm
10:15 AM 58.1°F14.5°C 57.8°F14.3°C 99% 2.2 mph SSE3.5 kmh SSE 9.2 mph14.8 kmh 29.89 in1012.2 mb 0.00 in0.0 mm 0.00 in0.0 mm 0.56 in14.2 mm
10:30 AM 58.1°F14.5°C 57.8°F14.3°C 99% 6.9 mph SSE11.1 kmh SSE 9.8 mph15.8 kmh 29.89 in1012.2 mb 0.00 in0.0 mm 0.00 in0.0 mm 0.56 in14.2 mm
10:45 AM 57.9°F14.4°C 57.7°F14.3°C 99% 4.5 mph S7.2 kmh S 13.0 mph20.9 kmh 29.89 in1012.2 mb 0.00 in0.0 mm 0.00 in0.0 mm 0.56 in14.2 mm
11:00 AM 57.9°F14.4°C 57.7°F14.3°C 99% 2.2 mph SE3.5 kmh SE 9.8 mph15.8 kmh 29.88 in1011.9 mb 0.00 in0.0 mm 0.00 in0.0 mm 0.56 in14.2 mm
11:15 AM 58.1°F14.5°C 57.8°F14.3°C 99% 1.6 mph SE2.6 kmh SE 6.9 mph11.1 kmh 29.88 in1011.9 mb 0.00 in0.0 mm 0.00 in0.0 mm 0.56 in14.2 mm
11:30 AM 58.3°F14.6°C 58.0°F14.4°C 99% 0.7 mph SE1.1 kmh SE 9.8 mph15.8 kmh 29.87 in1011.5 mb 0.00 in0.0 mm 0.00 in0.0 mm 0.56 in14.2 mm
11:45 AM 58.5°F14.7°C 58.2°F14.6°C 99% 3.8 mph SE6.1 kmh SE 6.0 mph9.7 kmh 29.87 in1011.5 mb 0.00 in0.0 mm 0.00 in0.0 mm 0.56 in14.2 mm
12:00 PM 58.8°F14.9°C 58.6°F14.8°C 99% 2.2 mph S3.5 kmh S 5.4 mph8.7 kmh 29.87 in1011.5 mb 0.00 in0.0 mm 0.00 in0.0 mm 0.56 in14.2 mm
12:15 PM 58.8°F14.9°C 58.6°F14.8°C 99% 3.1 mph S5.0 kmh S 6.9 mph11.1 kmh 29.86 in1011.2 mb 0.00 in0.0 mm 0.00 in0.0 mm 0.56 in14.2 mm
12:30 PM 59.0°F15.0°C 58.7°F14.8°C 99% 1.6 mph S2.6 kmh S 5.4 mph8.7 kmh 29.85 in1010.8 mb 0.00 in0.0 mm 0.00 in0.0 mm 0.56 in14.2 mm
12:45 PM 59.2°F15.1°C 58.9°F14.9°C 99% 0.7 mph SSW1.1 kmh SSW 6.0 mph9.7 kmh 29.85 in1010.8 mb 0.00 in0.0 mm 0.00 in0.0 mm 0.56 in14.2 mm
01:00 PM 59.2°F15.1°C 58.9°F14.9°C 99% 5.4 mph SW8.7 kmh SW 7.6 mph12.2 kmh 29.86 in1011.2 mb 0.02 in0.5 mm 0.03 in0.8 mm 0.58 in14.7 mm
01:15 PM 59.2°F15.1°C 58.9°F14.9°C 99% 2.2 mph S3.5 kmh S 6.0 mph9.7 kmh 29.84 in1010.5 mb 0.04 in1.0 mm 0.08 in2.0 mm 0.59 in15.0 mm
01:30 PM 59.2°F15.1°C 58.9°F14.9°C 99% 3.8 mph S6.1 kmh S 9.2 mph14.8 kmh 29.84 in1010.5 mb 0.05 in1.3 mm 0.04 in1.0 mm 0.60 in15.2 mm
01:45 PM 59.4°F15.2°C 59.1°F15.1°C 99% 1.6 mph S2.6 kmh S 6.0 mph9.7 kmh 29.84 in1010.5 mb 0.06 in1.5 mm 0.04 in1.0 mm 0.61 in15.5 mm
02:00 PM 59.5°F15.3°C 59.3°F15.2°C 99% 0.7 mph S1.1 kmh S 6.0 mph9.7 kmh 29.85 in1010.8 mb 0.06 in1.5 mm 0.00 in0.0 mm 0.64 in16.3 mm
02:15 PM 59.7°F15.4°C 59.5°F15.3°C 99% 3.1 mph S5.0 kmh S 7.6 mph12.2 kmh 29.84 in1010.5 mb 0.05 in1.3 mm 0.00 in0.0 mm 0.65 in16.5 mm
02:30 PM 59.9°F15.5°C 59.6°F15.3°C 99% 3.1 mph SSE5.0 kmh SSE 6.9 mph11.1 kmh 29.84 in1010.5 mb 0.06 in1.5 mm 0.04 in1.0 mm 0.66 in16.8 mm
02:45 PM 59.9°F15.5°C 59.6°F15.3°C 99% 0.7 mph S1.1 kmh S 5.4 mph8.7 kmh 29.85 in1010.8 mb 0.06 in1.5 mm 0.00 in0.0 mm 0.67 in17.0 mm
03:00 PM 59.9°F15.5°C 59.6°F15.3°C 99% 3.1 mph S5.0 kmh S 6.0 mph9.7 kmh 29.85 in1010.8 mb 0.06 in1.5 mm 0.00 in0.0 mm 0.70 in17.8 mm
03:15 PM 59.9°F15.5°C 59.6°F15.3°C 99% 3.1 mph S5.0 kmh S 7.6 mph12.2 kmh 29.83 in1010.2 mb 0.06 in1.5 mm 0.00 in0.0 mm 0.71 in18.0 mm
03:30 PM 60.1°F15.6°C 59.8°F15.4°C 99% 2.2 mph S3.5 kmh S 6.9 mph11.1 kmh 29.83 in1010.2 mb 0.06 in1.5 mm 0.00 in0.0 mm 0.72 in18.3 mm
03:45 PM 60.1°F15.6°C 59.8°F15.4°C 99% 3.8 mph S6.1 kmh S 6.0 mph9.7 kmh 29.82 in1009.8 mb 0.05 in1.3 mm 0.00 in0.0 mm 0.73 in18.5 mm
04:00 PM 60.1°F15.6°C 59.8°F15.4°C 99% 2.2 mph S3.5 kmh S 3.8 mph6.1 kmh 29.82 in1009.8 mb 0.05 in1.3 mm 0.00 in0.0 mm 0.74 in18.8 mm
04:15 PM 60.1°F15.6°C 59.8°F15.4°C 99% 0.7 mph SSE1.1 kmh SSE 3.8 mph6.1 kmh 29.82 in1009.8 mb 0.04 in1.0 mm 0.00 in0.0 mm 0.74 in18.8 mm
04:30 PM 60.1°F15.6°C 59.8°F15.4°C 99% 0.7 mph SE1.1 kmh SE 3.1 mph5.0 kmh 29.81 in1009.5 mb 0.02 in0.5 mm 0.00 in0.0 mm 0.76 in19.3 mm
04:45 PM 60.1°F15.6°C 59.8°F15.4°C 99% 1.6 mph SE2.6 kmh SE 3.1 mph5.0 kmh 29.80 in1009.1 mb 0.04 in1.0 mm 0.08 in2.0 mm 0.77 in19.6 mm
05:00 PM 59.9°F15.5°C 59.6°F15.3°C 99% 1.6 mph SE2.6 kmh SE 3.1 mph5.0 kmh 29.80 in1009.1 mb 0.06 in1.5 mm 0.03 in0.8 mm 0.80 in20.3 mm
05:15 PM 59.7°F15.4°C 59.5°F15.3°C 99% Calm Calm 3.1 mph5.0 kmh 29.81 in1009.5 mb 0.09 in2.3 mm 0.12 in3.0 mm 0.85 in21.6 mm
05:30 PM 59.5°F15.3°C 59.3°F15.2°C 99% 1.6 mph SE2.6 kmh SE 3.1 mph5.0 kmh 29.80 in1009.1 mb 0.13 in3.3 mm 0.16 in4.1 mm 0.89 in22.6 mm
05:45 PM 59.4°F15.2°C 59.1°F15.1°C 99% 1.6 mph SE2.6 kmh SE 4.5 mph7.2 kmh 29.80 in1009.1 mb 0.12 in3.0 mm 0.00 in0.0 mm 0.90 in22.9 mm
06:00 PM 59.4°F15.2°C 59.1°F15.1°C 99% 0.7 mph SE1.1 kmh SE 3.8 mph6.1 kmh 29.79 in1008.8 mb 0.12 in3.0 mm 0.00 in0.0 mm 0.92 in23.4 mm
06:15 PM 59.4°F15.2°C 59.1°F15.1°C 99% 1.6 mph SSE2.6 kmh SSE 3.8 mph6.1 kmh 29.78 in1008.5 mb 0.09 in2.3 mm 0.00 in0.0 mm 0.94 in23.9 mm
06:30 PM 59.2°F15.1°C 58.9°F14.9°C 99% 1.6 mph SSE2.6 kmh SSE 4.5 mph7.2 kmh 29.78 in1008.5 mb 0.07 in1.8 mm 0.00 in0.0 mm 0.96 in24.4 mm
06:45 PM 59.4°F15.2°C 59.1°F15.1°C 99% 3.1 mph SE5.0 kmh SE 7.6 mph12.2 kmh 29.79 in1008.8 mb 0.07 in1.8 mm 0.00 in0.0 mm 0.97 in24.6 mm
07:00 PM 59.4°F15.2°C 59.1°F15.1°C 99% 3.1 mph SE5.0 kmh SE 6.0 mph9.7 kmh 29.78 in1008.5 mb 0.06 in1.5 mm 0.00 in0.0 mm 0.98 in24.9 mm
07:15 PM 59.4°F15.2°C 59.1°F15.1°C 99% 3.1 mph SE5.0 kmh SE 6.0 mph9.7 kmh 29.79 in1008.8 mb 0.05 in1.3 mm 0.00 in0.0 mm 0.99 in25.1 mm
07:30 PM 59.4°F15.2°C 59.1°F15.1°C 99% 3.1 mph SE5.0 kmh SE 6.0 mph9.7 kmh 29.78 in1008.5 mb 0.05 in1.3 mm 0.00 in0.0 mm 1.00 in25.4 mm
07:45 PM 59.4°F15.2°C 59.1°F15.1°C 99% 3.1 mph SSE5.0 kmh SSE 10.7 mph17.2 kmh 29.78 in1008.5 mb 0.05 in1.3 mm 0.00 in0.0 mm 1.02 in25.9 mm
08:00 PM 59.4°F15.2°C 59.1°F15.1°C 99% 3.8 mph SSE6.1 kmh SSE 12.1 mph19.5 kmh 29.78 in1008.5 mb 0.04 in1.0 mm 0.00 in0.0 mm 1.02 in25.9 mm
08:15 PM 59.4°F15.2°C 59.1°F15.1°C 99% 0.7 mph SSE1.1 kmh SSE 9.2 mph14.8 kmh 29.78 in1008.5 mb 0.02 in0.5 mm 0.00 in0.0 mm 1.02 in25.9 mm
08:30 PM 59.4°F15.2°C 59.1°F15.1°C 99% 2.2 mph SSE3.5 kmh SSE 6.9 mph11.1 kmh 29.79 in1008.8 mb 0.02 in0.5 mm 0.00 in0.0 mm 1.03 in26.2 mm
08:45 PM 59.4°F15.2°C 59.1°F15.1°C 99% 3.1 mph S5.0 kmh S 7.6 mph12.2 kmh 29.80 in1009.1 mb 0.01 in0.3 mm 0.00 in0.0 mm 1.03 in26.2 mm
09:00 PM 59.4°F15.2°C 59.1°F15.1°C 99% 0.7 mph SSW1.1 kmh SSW 4.5 mph7.2 kmh 29.81 in1009.5 mb 0.02 in0.5 mm 0.01 in0.3 mm 1.04 in26.4 mm
09:15 PM 59.4°F15.2°C 59.1°F15.1°C 99% 1.6 mph SE2.6 kmh SE 5.4 mph8.7 kmh 29.79 in1008.8 mb 0.06 in1.5 mm 0.16 in4.1 mm 1.07 in27.2 mm
09:30 PM 59.4°F15.2°C 59.1°F15.1°C 99% 3.8 mph SSE6.1 kmh SSE 11.4 mph18.3 kmh 29.75 in1007.5 mb 0.05 in1.3 mm 0.00 in0.0 mm 1.07 in27.2 mm
09:45 PM 59.4°F15.2°C 59.1°F15.1°C 99% 7.6 mph SE12.2 kmh SE 12.1 mph19.5 kmh 29.74 in1007.1 mb 0.06 in1.5 mm 0.04 in1.0 mm 1.09 in27.7 mm
10:00 PM 59.4°F15.2°C 59.1°F15.1°C 99% 0.7 mph SSE1.1 kmh SSE 9.8 mph15.8 kmh 29.77 in1008.1 mb 0.05 in1.3 mm 0.00 in0.0 mm 1.09 in27.7 mm
10:15 PM 59.4°F15.2°C 59.1°F15.1°C 99% 6.0 mph SSE9.7 kmh SSE 11.4 mph18.3 kmh 29.75 in1007.5 mb 0.01 in0.3 mm 0.00 in0.0 mm 1.09 in27.7 mm
10:30 PM 59.4°F15.2°C 59.1°F15.1°C 99% 5.4 mph SSE8.7 kmh SSE 11.4 mph18.3 kmh 29.74 in1007.1 mb 0.00 in0.0 mm 0.00 in0.0 mm 1.09 in27.7 mm
10:45 PM 59.4°F15.2°C 59.1°F15.1°C 99% 4.5 mph S7.2 kmh S 13.6 mph21.9 kmh 29.73 in1006.8 mb 0.00 in0.0 mm 0.00 in0.0 mm 1.09 in27.7 mm
11:00 PM 59.2°F15.1°C 58.9°F14.9°C 99% 2.2 mph SE3.5 kmh SE 18.3 mph29.5 kmh 29.72 in1006.4 mb 0.00 in0.0 mm 0.00 in0.0 mm 1.09 in27.7 mm
11:15 PM 59.0°F15.0°C 58.7°F14.8°C 99% 6.0 mph SSE9.7 kmh SSE 15.2 mph24.5 kmh 29.73 in1006.8 mb 0.00 in0.0 mm 0.00 in0.0 mm 1.09 in27.7 mm
11:30 PM 59.0°F15.0°C 58.7°F14.8°C 99% 2.2 mph S3.5 kmh S 8.3 mph13.4 kmh 29.76 in1007.8 mb 0.01 in0.3 mm 0.04 in1.0 mm 1.10 in27.9 mm
11:45 PM 59.2°F15.1°C 58.9°F14.9°C 99% 2.2 mph S3.5 kmh S 10.7 mph17.2 kmh 29.77 in1008.1 mb 0.02 in0.5 mm 0.04 in1.0 mm 1.11 in28.2 mm